Time;durP1;ratioP1;P1;durP2;ratioP2;P2;SDS_P1;SDS_P2;PMS_P1;PMS_P2;Temp;Humidity;BMP_temperature;BMP_pressure;BME280_temperature;BME280_humidity;BME280_pressure;Samples;Min_cycle;Max_cycle;Signal;HPM_P1;HPM_P2
2022/03/09 00:00:59;;;;;;;6.90;5.67;;;4.10;50.80;3.80;96888.00;;;;5017074;28;20572;-82
2022/03/09 00:03:26;;;;;;;6.20;5.43;;;4.00;50.80;3.80;96879.00;;;;5018179;28;20461;-82
2022/03/09 00:05:53;;;;;;;7.67;5.90;;;4.00;51.00;3.80;96885.00;;;;5014614;28;20868;-82
2022/03/09 00:08:21;;;;;;;6.40;5.37;;;4.00;51.10;3.80;96887.00;;;;5018674;28;20849;-82
2022/03/09 00:10:48;;;;;;;5.57;5.00;;;4.00;51.60;3.70;96890.00;;;;5015843;28;20467;-81
2022/03/09 00:13:15;;;;;;;6.77;5.17;;;4.00;51.20;3.70;96891.00;;;;5017494;28;20472;-82
2022/03/09 00:15:43;;;;;;;5.80;4.73;;;3.90;51.10;3.70;96894.00;;;;5018712;28;20997;-82
2022/03/09 00:18:10;;;;;;;7.07;5.30;;;3.90;51.20;3.70;96905.00;;;;5017130;28;20452;-82
2022/03/09 00:20:37;;;;;;;6.57;5.30;;;3.90;51.30;3.70;96892.00;;;;5016113;28;20469;-82
2022/03/09 00:23:04;;;;;;;7.57;5.37;;;4.00;51.40;3.60;96892.00;;;;5018188;28;20532;-83
2022/03/09 00:25:33;;;;;;;6.67;5.47;;;3.90;51.40;3.60;96889.00;;;;5017876;28;20527;-82
2022/03/09 00:28:00;;;;;;;7.47;5.83;;;3.90;51.50;3.60;96888.00;;;;5018596;28;20441;-82
2022/03/09 00:30:28;;;;;;;7.63;5.33;;;3.80;51.50;3.60;96881.00;;;;5017211;28;20460;-82
2022/03/09 00:32:55;;;;;;;6.40;5.27;;;3.80;51.50;3.60;96887.00;;;;5018985;28;20441;-82
2022/03/09 00:35:22;;;;;;;5.47;4.97;;;3.80;52.10;3.60;96880.00;;;;5018766;28;20433;-82
2022/03/09 00:37:57;;;;;;;5.80;5.13;;;3.80;51.60;3.60;96888.00;;;;5113554;27;20574;-81
2022/03/09 00:40:25;;;;;;;6.27;5.37;;;3.80;51.70;3.50;96879.00;;;;5094115;28;20448;-82
2022/03/09 00:42:52;;;;;;;7.07;5.70;;;3.80;51.80;3.50;96885.00;;;;5092001;28;20460;-81
2022/03/09 00:45:19;;;;;;;6.30;5.17;;;3.70;51.90;3.50;96893.00;;;;5071585;28;20541;-81
2022/03/09 00:47:46;;;;;;;7.77;5.20;;;3.70;52.00;3.50;96886.00;;;;5072634;28;20517;-81
2022/03/09 00:50:13;;;;;;;7.00;5.77;;;3.70;52.00;3.50;96892.00;;;;5071962;28;20526;-82
2022/03/09 00:52:40;;;;;;;6.90;5.23;;;3.70;51.90;3.50;96895.00;;;;5073496;28;20434;-82
2022/03/09 00:55:10;;;;;;;7.03;5.07;;;3.70;51.90;3.50;96896.00;;;;5073178;28;20439;-82
2022/03/09 00:57:37;;;;;;;6.50;5.90;;;3.70;52.00;3.50;96891.00;;;;5073121;28;20844;-82
2022/03/09 01:00:06;;;;;;;5.37;4.80;;;3.70;51.90;3.40;96885.00;;;;5072185;28;20526;-82
2022/03/09 01:02:33;;;;;;;6.10;5.00;;;3.70;51.90;3.40;96884.00;;;;5073608;28;20538;-82
2022/03/09 01:05:00;;;;;;;5.43;4.93;;;3.70;51.90;3.40;96895.00;;;;5071590;28;20520;-82
2022/03/09 01:07:27;;;;;;;5.70;5.13;;;3.70;51.90;3.40;96894.00;;;;5072967;28;21011;-81
2022/03/09 01:09:58;;;;;;;5.17;4.60;;;3.60;51.90;3.40;96891.00;;;;5072373;28;20443;-81
2022/03/09 01:12:27;;;;;;;5.73;5.07;;;3.60;51.80;3.40;96882.00;;;;5073354;28;20494;-82
2022/03/09 01:14:54;;;;;;;6.63;5.23;;;3.60;51.90;3.30;96884.00;;;;5070695;28;20466;-82
2022/03/09 01:17:22;;;;;;;6.67;4.83;;;3.50;51.90;3.30;96879.00;;;;5072316;28;20577;-82
2022/03/09 01:19:49;;;;;;;8.97;4.67;;;3.50;52.00;3.30;96886.00;;;;5070588;28;20454;-81
2022/03/09 01:22:16;;;;;;;5.97;4.97;;;3.50;52.10;3.30;96887.00;;;;5072002;28;20443;-82
2022/03/09 01:24:43;;;;;;;6.27;5.60;;;3.50;52.30;3.20;96891.00;;;;5071594;28;20468;-81
2022/03/09 01:27:10;;;;;;;4.87;4.37;;;3.50;52.50;3.20;96881.00;;;;5071096;28;20454;-81
2022/03/09 01:29:39;;;;;;;6.27;5.10;;;3.40;52.40;3.20;96870.00;;;;5072064;28;20513;-81
2022/03/09 01:32:07;;;;;;;9.00;5.60;;;3.50;52.40;3.20;96873.00;;;;5072080;28;20442;-82
2022/03/09 01:34:35;;;;;;;6.73;5.40;;;3.40;52.30;3.20;96865.00;;;;5065277;28;20486;-82
2022/03/09 01:37:03;;;;;;;7.03;4.93;;;3.40;52.30;3.10;96867.00;;;;5070798;28;20534;-82
2022/03/09 01:39:30;;;;;;;6.13;5.17;;;3.40;52.40;3.10;96874.00;;;;5068574;28;20461;-81
2022/03/09 01:41:57;;;;;;;5.73;5.00;;;3.40;52.50;3.10;96876.00;;;;5070279;28;20967;-81
2022/03/09 01:44:25;;;;;;;5.97;4.83;;;3.40;52.60;3.10;96868.00;;;;5070502;28;20461;-82
2022/03/09 01:46:55;;;;;;;6.83;5.47;;;3.30;53.10;3.10;96871.00;;;;5070486;28;20481;-82
2022/03/09 01:49:24;;;;;;;5.80;5.00;;;3.30;52.70;3.10;96871.00;;;;5057005;28;20515;-81
2022/03/09 01:51:57;;;;;;;6.30;4.90;;;3.30;52.60;3.00;96862.00;;;;5057174;28;20598;-81
2022/03/09 01:54:25;;;;;;;6.23;4.63;;;3.30;52.70;3.00;96857.00;;;;5055837;28;20470;-81
2022/03/09 01:56:53;;;;;;;5.47;4.97;;;3.20;53.10;3.00;96871.00;;;;5056721;28;20513;-81
2022/03/09 01:59:20;;;;;;;5.73;4.93;;;3.30;52.60;3.00;96875.00;;;;5058176;28;20514;-82
2022/03/09 02:01:48;;;;;;;5.77;4.77;;;3.20;52.60;3.00;96865.00;;;;5058893;28;20474;-81
2022/03/09 02:04:19;;;;;;;5.20;4.70;;;3.20;52.60;3.00;96868.00;;;;5058381;28;20463;-81
2022/03/09 02:06:47;;;;;;;6.67;4.97;;;3.20;52.60;2.90;96861.00;;;;5058835;28;20487;-81
2022/03/09 02:12:08;;;;;;;6.53;4.97;;;3.20;52.70;2.90;96856.00;;;;5042618;28;20524;-81
2022/03/09 02:14:39;;;;;;;6.60;4.73;;;3.20;52.70;2.90;96858.00;;;;5053900;28;20451;-82
2022/03/09 02:17:10;;;;;;;6.33;5.03;;;3.10;52.70;2.90;96868.00;;;;5054885;28;20553;-81
2022/03/09 02:19:41;;;;;;;5.93;4.70;;;3.10;52.80;2.90;96870.00;;;;5054924;28;20439;-82
2022/03/09 02:22:14;;;;;;;6.20;5.60;;;3.10;52.80;2.80;96856.00;;;;5056719;28;20538;-82
2022/03/09 02:24:43;;;;;;;6.70;5.53;;;3.10;52.80;2.80;96870.00;;;;5056036;28;20530;-81
2022/03/09 02:27:10;;;;;;;6.70;5.40;;;3.10;52.80;2.80;96867.00;;;;5056603;28;20508;-81
2022/03/09 02:29:38;;;;;;;7.93;6.17;;;3.10;52.80;2.80;96867.00;;;;5057445;28;20468;-81
2022/03/09 02:32:07;;;;;;;7.67;5.97;;;3.00;52.80;2.80;96871.00;;;;5057938;28;20548;-81
2022/03/09 02:34:35;;;;;;;8.93;6.33;;;3.00;52.90;2.70;96866.00;;;;5057360;28;20550;-81
2022/03/09 02:37:02;;;;;;;8.23;6.50;;;3.00;52.90;2.70;96859.00;;;;5057768;28;20482;-81
2022/03/09 02:39:29;;;;;;;9.30;7.03;;;3.00;52.90;2.70;96852.00;;;;5057484;28;20519;-81
2022/03/09 02:41:58;;;;;;;10.30;6.83;;;3.00;53.00;2.70;96854.00;;;;5057201;28;20459;-81
2022/03/09 02:44:25;;;;;;;8.53;6.53;;;2.90;53.00;2.70;96854.00;;;;5052985;28;20455;-81
2022/03/09 02:46:52;;;;;;;8.27;6.87;;;2.90;53.10;2.60;96847.00;;;;5052389;28;20958;-81
2022/03/09 02:49:19;;;;;;;8.77;6.40;;;2.90;53.20;2.60;96844.00;;;;5052975;28;20526;-81
2022/03/09 02:51:47;;;;;;;8.77;6.17;;;2.90;53.20;2.60;96852.00;;;;5053996;28;20500;-81
2022/03/09 02:54:14;;;;;;;8.90;6.43;;;2.80;53.30;2.60;96853.00;;;;5052180;28;20546;-81
2022/03/09 02:56:41;;;;;;;8.30;7.23;;;2.80;53.20;2.60;96853.00;;;;5054240;28;20573;-81
2022/03/09 02:59:10;;;;;;;8.10;6.57;;;2.80;53.40;2.60;96859.00;;;;5055017;28;20442;-81
2022/03/09 03:01:37;;;;;;;7.57;6.23;;;2.80;53.50;2.50;96858.00;;;;5056634;28;20471;-81
2022/03/09 03:04:05;;;;;;;7.17;6.33;;;2.80;54.10;2.50;96863.00;;;;5057246;28;20513;-82
2022/03/09 03:06:32;;;;;;;7.73;6.93;;;2.80;53.50;2.50;96865.00;;;;5056598;28;20455;-81
2022/03/09 03:08:59;;;;;;;7.77;6.70;;;2.80;53.60;2.50;96871.00;;;;5055772;28;20443;-81
2022/03/09 03:11:26;;;;;;;9.10;6.27;;;2.80;53.60;2.50;96876.00;;;;5057304;28;20880;-81
2022/03/09 03:13:55;;;;;;;8.00;6.43;;;2.80;53.70;2.50;96880.00;;;;5057494;28;20462;-83
2022/03/09 03:16:24;;;;;;;8.90;6.83;;;2.80;53.80;2.50;96872.00;;;;5059304;28;20427;-81
2022/03/09 03:18:55;;;;;;;10.80;6.47;;;2.80;53.60;2.40;96864.00;;;;5059292;28;20459;-81
2022/03/09 03:21:23;;;;;;;7.37;5.90;;;2.70;53.70;2.50;96864.00;;;;5059920;28;20451;-81
2022/03/09 03:23:51;;;;;;;9.83;6.83;;;2.70;53.70;2.40;96866.00;;;;5059933;28;20493;-80
2022/03/09 03:26:19;;;;;;;9.93;6.63;;;2.70;53.70;2.40;96871.00;;;;5060182;28;20863;-80
2022/03/09 03:28:46;;;;;;;11.60;6.37;;;2.70;53.80;2.40;96862.00;;;;5059976;28;20459;-81
2022/03/09 03:31:16;;;;;;;7.57;6.13;;;2.70;53.80;2.40;96887.00;;;;5059264;28;20466;-81
2022/03/09 03:33:45;;;;;;;7.77;6.53;;;2.70;53.90;2.40;96892.00;;;;5059632;28;20467;-81
2022/03/09 03:36:12;;;;;;;8.27;5.73;;;2.60;53.80;2.40;96897.00;;;;5056798;28;20534;-80
2022/03/09 03:38:39;;;;;;;8.33;6.20;;;2.70;53.80;2.40;96903.00;;;;5056324;28;20479;-80
2022/03/09 03:41:06;;;;;;;6.77;5.73;;;2.60;53.80;2.40;96905.00;;;;5056434;28;20501;-81
2022/03/09 03:43:34;;;;;;;7.10;5.83;;;2.60;53.90;2.40;96901.00;;;;5056538;28;20525;-81
2022/03/09 03:46:01;;;;;;;7.37;5.97;;;2.60;53.80;2.30;96893.00;;;;5056395;28;20447;-80
2022/03/09 03:48:28;;;;;;;8.00;5.97;;;2.60;53.80;2.30;96895.00;;;;5054820;28;20534;-80
2022/03/09 03:50:57;;;;;;;7.50;6.10;;;2.60;53.80;2.30;96891.00;;;;5055357;28;21006;-81
2022/03/09 03:53:24;;;;;;;7.27;5.63;;;2.60;53.90;2.30;96901.00;;;;5042934;28;20535;-81
2022/03/09 03:55:51;;;;;;;7.67;6.13;;;2.60;53.80;2.30;96897.00;;;;5042121;28;20464;-80
2022/03/09 03:58:18;;;;;;;7.40;6.20;;;2.50;53.80;2.30;96905.00;;;;5057123;28;20482;-80
2022/03/09 04:00:45;;;;;;;8.57;6.37;;;2.50;53.90;2.20;96913.00;;;;5056170;28;20439;-80
2022/03/09 04:03:12;;;;;;;7.73;6.13;;;2.50;53.80;2.20;96912.00;;;;5056236;28;20543;-80
2022/03/09 04:05:39;;;;;;;7.97;5.57;;;2.50;53.80;2.20;96908.00;;;;5054466;28;20447;-80
2022/03/09 04:08:08;;;;;;;8.97;6.00;;;2.50;53.80;2.20;96913.00;;;;5056171;28;20447;-81
2022/03/09 04:10:35;;;;;;;9.47;6.90;;;2.50;53.90;2.20;96914.00;;;;5055717;28;20469;-81
2022/03/09 04:13:04;;;;;;;9.73;5.90;;;2.50;53.90;2.20;96919.00;;;;5055563;28;20441;-81
2022/03/09 04:15:32;;;;;;;7.97;6.20;;;2.40;53.90;2.10;96919.00;;;;5054912;28;20435;-81
2022/03/09 04:17:59;;;;;;;7.30;6.07;;;2.40;54.00;2.10;96919.00;;;;5055080;28;20487;-81
2022/03/09 04:20:27;;;;;;;8.23;5.97;;;2.40;53.90;2.10;96923.00;;;;5055207;28;20867;-81
2022/03/09 04:22:54;;;;;;;8.40;6.67;;;2.40;54.50;2.10;96928.00;;;;5051269;28;20539;-81
2022/03/09 04:25:23;;;;;;;11.97;6.80;;;2.40;54.10;2.10;96932.00;;;;5053613;28;20435;-81
2022/03/09 04:27:50;;;;;;;9.50;6.80;;;2.40;54.20;2.10;96927.00;;;;5044980;28;20423;-81
2022/03/09 04:30:17;;;;;;;9.20;6.30;;;2.40;54.40;2.10;96934.00;;;;5053291;28;20932;-81
2022/03/09 04:32:44;;;;;;;11.77;6.30;;;2.30;54.40;2.00;96936.00;;;;5054831;28;20514;-80
2022/03/09 04:35:12;;;;;;;7.40;6.30;;;2.30;54.40;2.00;96932.00;;;;5054552;28;20444;-81
2022/03/09 04:37:39;;;;;;;10.33;6.57;;;2.30;54.30;2.00;96936.00;;;;5053946;28;21058;-81
2022/03/09 04:40:08;;;;;;;7.87;5.87;;;2.40;54.40;2.00;96931.00;;;;5054714;28;20542;-80
2022/03/09 04:42:37;;;;;;;7.40;5.73;;;2.30;54.30;2.00;96947.00;;;;5056049;28;20527;-80
2022/03/09 04:45:05;;;;;;;7.63;5.97;;;2.30;54.30;2.00;96947.00;;;;5054609;28;21017;-81
2022/03/09 04:47:32;;;;;;;7.27;5.93;;;2.30;54.40;2.00;96953.00;;;;5054965;28;20856;-80
2022/03/09 04:49:59;;;;;;;8.90;6.30;;;2.30;54.40;1.90;96959.00;;;;5054665;28;20472;-81
2022/03/09 04:52:26;;;;;;;10.10;6.77;;;2.20;54.30;1.90;96965.00;;;;5036028;28;20436;-81
2022/03/09 04:54:53;;;;;;;8.73;6.70;;;2.20;54.40;1.90;96961.00;;;;5084639;22;20847;-86
2022/03/09 04:57:20;;;;;;;9.00;6.83;;;2.20;54.40;1.90;96969.00;;;;5061712;28;20983;-86
2022/03/09 04:59:49;;;;;;;12.33;7.30;;;2.20;54.50;1.90;96969.00;;;;5071319;28;20466;-85
2022/03/09 05:02:16;;;;;;;9.80;7.00;;;2.20;54.60;1.90;96965.00;;;;5067985;28;20945;-86
2022/03/09 05:04:43;;;;;;;9.53;6.47;;;2.20;54.60;1.80;96964.00;;;;5071810;28;20458;-87
2022/03/09 05:07:10;;;;;;;9.70;6.57;;;2.20;54.70;1.80;96967.00;;;;5072165;28;20434;-86
2022/03/09 05:09:37;;;;;;;7.17;6.13;;;2.10;54.60;1.80;96976.00;;;;5072678;28;20536;-86
2022/03/09 05:12:05;;;;;;;8.70;6.73;;;2.10;54.60;1.80;96980.00;;;;5074003;28;20434;-86
2022/03/09 05:14:32;;;;;;;9.63;6.57;;;2.10;54.60;1.70;96981.00;;;;5073795;28;20474;-87
2022/03/09 05:17:01;;;;;;;11.47;6.30;;;2.10;54.70;1.70;96966.00;;;;5073748;28;20434;-87
2022/03/09 05:19:28;;;;;;;10.03;6.63;;;2.10;54.70;1.70;96976.00;;;;5071466;28;20442;-87
2022/03/09 05:21:55;;;;;;;10.03;6.20;;;3.30;55.30;1.70;96976.00;;;;5071655;28;21197;-87
2022/03/09 05:24:23;;;;;;;8.30;6.33;;;2.00;54.60;1.70;96979.00;;;;5073594;28;20462;-86
2022/03/09 05:26:50;;;;;;;10.13;6.13;;;2.00;54.70;1.70;96976.00;;;;5075099;28;20920;-87
2022/03/09 05:29:19;;;;;;;8.83;6.80;;;2.00;54.70;1.60;96967.00;;;;5074269;28;20440;-86
2022/03/09 05:31:47;;;;;;;12.23;7.07;;;2.00;54.80;1.60;96960.00;;;;5065628;28;20515;-86
2022/03/09 05:34:15;;;;;;;10.10;6.63;;;2.10;54.80;1.60;96959.00;;;;5074866;28;20474;-88
2022/03/09 05:36:43;;;;;;;8.67;7.00;;;2.00;54.80;1.60;96953.00;;;;5074910;28;20517;-88
2022/03/09 05:39:12;;;;;;;10.20;6.90;;;2.60;55.10;1.60;96957.00;;;;5074528;28;20489;-88
2022/03/09 05:41:39;;;;;;;9.20;6.40;;;1.90;54.90;1.60;96950.00;;;;5074720;28;20882;-88
2022/03/09 05:44:06;;;;;;;11.53;6.70;;;1.90;54.90;1.50;96955.00;;;;5073837;28;20791;-88
2022/03/09 05:46:35;;;;;;;10.00;6.93;;;1.90;54.80;1.50;96964.00;;;;5074893;28;20441;-88
2022/03/09 05:49:03;;;;;;;11.60;6.47;;;1.90;54.90;1.50;96962.00;;;;5074382;28;20880;-89
2022/03/09 05:51:32;;;;;;;9.60;6.73;;;1.90;55.10;1.50;96970.00;;;;5074325;28;20434;-89
2022/03/09 05:53:59;;;;;;;8.10;6.60;;;1.80;55.20;1.50;96970.00;;;;5074469;28;20446;-88
2022/03/09 05:56:26;;;;;;;11.63;7.00;;;1.80;55.20;1.50;96953.00;;;;5074170;28;20495;-89
2022/03/09 05:58:57;;;;;;;9.67;6.97;;;2.00;55.40;1.50;96959.00;;;;5074355;28;20478;-88
2022/03/09 06:01:24;;;;;;;11.47;7.60;;;1.80;55.50;1.50;96960.00;;;;5073652;28;20511;-88
2022/03/09 06:03:51;;;;;;;8.97;7.17;;;1.80;55.60;1.50;96963.00;;;;5074472;28;20445;-88
2022/03/09 06:06:18;;;;;;;8.83;7.07;;;1.80;55.70;1.50;96967.00;;;;5073838;28;20958;-87
2022/03/09 06:08:50;;;;;;;8.53;7.00;;;1.90;55.90;1.60;96966.00;;;;5074382;28;20820;-87
2022/03/09 06:11:17;;;;;;;11.17;7.07;;;1.90;55.90;1.60;96957.00;;;;5073894;28;20442;-88
2022/03/09 06:13:44;;;;;;;9.40;6.70;;;2.70;56.10;1.70;96967.00;;;;5074373;28;20662;-88
2022/03/09 06:16:13;;;;;;;8.97;7.50;;;1.90;55.70;1.70;96968.00;;;;5072111;28;20462;-87
2022/03/09 06:18:40;;;;;;;8.60;6.63;;;1.80;55.60;1.70;96962.00;;;;5064061;28;21031;-88
2022/03/09 06:21:07;;;;;;;8.53;6.97;;;1.90;55.80;1.80;96967.00;;;;5073795;28;20438;-88
2022/03/09 06:23:35;;;;;;;11.27;7.13;;;1.90;55.80;1.80;96959.00;;;;5073532;28;21107;-88
2022/03/09 06:26:03;;;;;;;8.83;6.43;;;1.90;55.80;1.90;96965.00;;;;5071808;28;20466;-88
2022/03/09 06:28:30;;;;;;;11.37;7.30;;;1.90;55.80;1.90;96972.00;;;;5072754;28;20446;-87
2022/03/09 06:30:58;;;;;;;8.87;6.87;;;2.00;55.90;1.90;96980.00;;;;5077929;28;20460;-88
2022/03/09 06:33:25;;;;;;;11.23;7.63;;;2.00;56.00;2.00;96973.00;;;;5079064;28;20513;-87
2022/03/09 06:35:52;;;;;;;9.43;7.60;;;2.00;56.10;2.00;96979.00;;;;5070507;28;20469;-88
2022/03/09 06:38:19;;;;;;;8.60;7.50;;;2.00;56.20;2.10;96977.00;;;;5071800;28;20508;-87
2022/03/09 06:40:46;;;;;;;11.17;7.70;;;2.10;56.40;2.10;96989.00;;;;5072295;28;20814;-88
2022/03/09 06:43:15;;;;;;;8.67;6.60;;;2.10;56.60;2.10;96989.00;;;;5073870;28;20438;-87
2022/03/09 06:45:42;;;;;;;14.57;7.07;;;2.20;56.60;2.20;96987.00;;;;5071724;28;20465;-87
2022/03/09 06:48:09;;;;;;;8.97;7.20;;;2.20;56.60;2.20;96984.00;;;;5070797;28;20958;-88
2022/03/09 06:50:36;;;;;;;9.10;6.93;;;2.20;56.80;2.30;96984.00;;;;5061512;28;20960;-88
2022/03/09 06:53:04;;;;;;;9.43;6.87;;;2.30;56.90;2.30;96986.00;;;;5072689;28;20434;-88
2022/03/09 06:55:31;;;;;;;9.40;6.90;;;2.30;56.80;2.40;96990.00;;;;5073358;28;20492;-87
2022/03/09 06:57:58;;;;;;;7.30;6.17;;;2.40;57.00;2.40;97008.00;;;;5073028;28;20490;-88
2022/03/09 07:00:27;;;;;;;8.07;6.17;;;2.40;57.00;2.50;97010.00;;;;5080541;28;20474;-88
2022/03/09 07:02:56;;;;;;;7.00;6.30;;;3.60;57.60;2.50;97006.00;;;;5081238;28;20440;-88
2022/03/09 07:05:26;;;;;;;7.67;6.53;;;2.50;57.10;2.60;97010.00;;;;5080483;28;20498;-89
2022/03/09 07:07:53;;;;;;;7.17;6.13;;;3.40;57.30;2.60;97002.00;;;;5079720;28;20564;-88
2022/03/09 07:10:20;;;;;;;8.73;6.97;;;3.20;57.50;2.70;97015.00;;;;5077784;28;20443;-88
2022/03/09 07:12:48;;;;;;;7.23;6.27;;;3.50;57.40;2.70;97020.00;;;;5076101;28;20804;-88
2022/03/09 07:15:25;;;;;;;7.67;6.00;;;2.70;57.00;2.80;97022.00;;;;5065974;28;20487;-87
2022/03/09 07:17:52;;;;;;;7.40;5.93;;;2.80;57.10;2.80;97027.00;;;;5068736;28;20434;-88
2022/03/09 07:20:20;;;;;;;8.03;6.13;;;2.80;56.90;2.90;97024.00;;;;5077379;28;20454;-89
2022/03/09 07:22:48;;;;;;;8.10;6.40;;;2.80;56.90;3.00;97036.00;;;;5075686;28;20509;-88
2022/03/09 07:25:15;;;;;;;8.77;6.33;;;2.90;56.90;3.00;97036.00;;;;5071078;28;20537;-88
2022/03/09 07:27:43;;;;;;;9.50;6.43;;;2.90;56.90;3.10;97040.00;;;;5069013;28;20522;-87
2022/03/09 07:30:11;;;;;;;8.27;6.30;;;3.30;57.00;3.10;97041.00;;;;5073410;28;20430;-88
2022/03/09 07:32:40;;;;;;;8.07;6.10;;;3.10;56.80;3.20;97045.00;;;;5078154;28;20503;-88
2022/03/09 07:35:09;;;;;;;7.93;6.40;;;3.50;57.00;3.30;97037.00;;;;5054937;28;20490;-88
2022/03/09 07:37:38;;;;;;;8.57;6.10;;;3.20;56.80;3.40;97034.00;;;;5071346;28;20462;-88
2022/03/09 07:40:07;;;;;;;6.60;5.00;;;3.30;56.80;3.40;97044.00;;;;5070734;28;20486;-88
2022/03/09 07:42:34;;;;;;;7.87;6.07;;;3.30;56.70;3.50;97043.00;;;;5072307;28;20442;-88
2022/03/09 07:45:03;;;;;;;7.23;5.37;;;3.40;56.60;3.60;97050.00;;;;5072093;28;20523;-89
2022/03/09 07:47:30;;;;;;;7.33;5.53;;;3.50;56.60;3.70;97046.00;;;;5071837;28;20465;-88
2022/03/09 07:49:59;;;;;;;6.87;6.17;;;3.60;56.60;3.80;97051.00;;;;5073486;28;20438;-89
2022/03/09 07:52:26;;;;;;;7.43;5.60;;;4.80;57.10;3.90;97054.00;;;;5074185;28;20812;-88
2022/03/09 07:54:53;;;;;;;6.60;5.90;;;4.10;56.50;4.00;97058.00;;;;5068855;28;20478;-88
2022/03/09 07:57:20;;;;;;;7.73;5.40;;;3.90;56.30;4.20;97058.00;;;;5052757;28;20817;-88
2022/03/09 07:59:47;;;;;;;5.77;5.23;;;4.00;56.40;4.40;97063.00;;;;5054492;28;20494;-88
2022/03/09 08:02:14;;;;;;;6.27;5.33;;;4.10;56.50;4.60;97067.00;;;;5070692;28;20454;-89
2022/03/09 08:04:41;;;;;;;5.80;5.30;;;4.30;56.50;4.80;97070.00;;;;5071160;28;20709;-89
2022/03/09 08:07:09;;;;;;;5.40;4.90;;;4.40;56.50;5.00;97073.00;;;;5070922;28;20232;-88
2022/03/09 08:09:36;;;;;;;6.20;5.27;;;4.60;56.40;5.20;97070.00;;;;5071916;28;20584;-89
2022/03/09 08:12:04;;;;;;;5.47;4.83;;;4.80;56.70;5.50;97067.00;;;;5070144;28;20294;-89
2022/03/09 08:14:32;;;;;;;5.40;4.57;;;5.00;56.10;5.70;97075.00;;;;5065211;28;20895;-89
2022/03/09 08:16:59;;;;;;;6.87;4.60;;;5.20;56.00;6.00;97076.00;;;;5070048;28;20275;-88
2022/03/09 08:19:28;;;;;;;7.30;5.10;;;5.40;55.70;6.20;97071.00;;;;5064031;28;20215;-89
2022/03/09 08:21:55;;;;;;;5.23;4.60;;;5.60;55.50;6.50;97072.00;;;;5067154;28;20730;-88
2022/03/09 08:24:23;;;;;;;4.83;4.33;;;5.90;55.30;6.70;97076.00;;;;5074151;28;20611;-90
2022/03/09 08:26:50;;;;;;;4.50;3.67;;;6.10;55.00;7.00;97076.00;;;;5071641;28;20196;-89
2022/03/09 08:29:17;;;;;;;5.83;4.33;;;6.30;54.70;7.20;97076.00;;;;5068985;28;20196;-89
2022/03/09 08:31:44;;;;;;;5.13;4.63;;;6.60;54.50;7.50;97074.00;;;;5063707;28;20188;-88
2022/03/09 08:34:11;;;;;;;5.27;4.33;;;6.80;54.20;7.80;97081.00;;;;5068826;28;20216;-89
2022/03/09 08:36:39;;;;;;;5.07;4.53;;;7.10;54.10;8.00;97076.00;;;;5071644;28;20658;-88
2022/03/09 08:39:06;;;;;;;6.60;4.40;;;7.30;54.00;8.20;97080.00;;;;5072127;28;20319;-89
2022/03/09 08:41:35;;;;;;;4.60;4.17;;;7.50;53.70;8.50;97089.00;;;;5071950;28;20283;-89
2022/03/09 08:44:03;;;;;;;5.87;4.57;;;7.70;53.10;8.80;97090.00;;;;5071365;28;20199;-88
2022/03/09 08:46:29;;;;;;;4.53;4.10;;;7.90;52.90;9.00;97095.00;;;;5072056;28;20191;-89
2022/03/09 08:48:57;;;;;;;5.60;5.10;;;8.10;52.50;9.30;97100.00;;;;5071547;28;20198;-89
2022/03/09 08:51:24;;;;;;;5.57;4.40;;;8.90;50.80;9.50;97098.00;;;;5071944;28;20853;-89
2022/03/09 08:53:51;;;;;;;4.70;4.20;;;8.60;51.30;9.80;97112.00;;;;5071248;28;20192;-89
2022/03/09 08:56:20;;;;;;;5.13;4.07;;;8.80;51.30;10.10;97101.00;;;;5072025;28;20290;-89
2022/03/09 08:58:49;;;;;;;5.23;3.53;;;9.10;51.30;10.50;97113.00;;;;5074284;28;20262;-89
2022/03/09 09:01:16;;;;;;;4.40;4.00;;;9.30;51.30;10.80;97107.00;;;;5075918;28;20194;-89
2022/03/09 09:03:43;;;;;;;4.63;4.13;;;9.60;51.20;11.20;97114.00;;;;5074438;28;20278;-89
2022/03/09 09:06:10;;;;;;;5.17;3.70;;;9.90;51.30;11.50;97110.00;;;;5075572;28;20212;-89
2022/03/09 09:08:37;;;;;;;4.43;4.03;;;10.30;51.00;11.90;97116.00;;;;5075799;28;20563;-89
2022/03/09 09:11:04;;;;;;;4.43;4.03;;;10.70;50.60;12.20;97120.00;;;;5094583;28;20183;-89
2022/03/09 09:13:31;;;;;;;4.07;3.70;;;11.20;50.40;12.50;97126.00;;;;5094859;28;20188;-88
2022/03/09 09:15:59;;;;;;;3.97;3.67;;;12.30;50.80;12.80;97113.00;;;;5094590;28;20207;-87
2022/03/09 09:18:27;;;;;;;4.20;3.77;;;12.30;50.20;13.10;97118.00;;;;5094264;28;20184;-89
2022/03/09 09:20:56;;;;;;;6.13;3.83;;;13.50;50.10;13.40;97128.00;;;;5092832;28;20191;-89
2022/03/09 09:23:24;;;;;;;7.00;3.70;;;13.50;48.70;13.60;97127.00;;;;5092450;28;20195;-85
2022/03/09 09:25:51;;;;;;;4.07;3.67;;;14.10;47.90;13.80;97123.00;;;;5093900;28;20684;-85
2022/03/09 09:28:18;;;;;;;4.47;4.07;;;14.60;47.40;14.10;97128.00;;;;5095612;28;20192;-85
2022/03/09 09:30:45;;;;;;;4.00;3.60;;;15.10;46.60;14.40;97133.00;;;;5091164;28;20261;-86
2022/03/09 09:33:14;;;;;;;5.93;4.00;;;15.60;45.70;14.60;97133.00;;;;5090147;28;20191;-86
2022/03/09 09:35:41;;;;;;;5.93;3.40;;;16.10;44.70;14.90;97124.00;;;;5092321;28;20211;-85
2022/03/09 09:38:08;;;;;;;4.87;3.63;;;16.50;44.10;15.10;97133.00;;;;5093853;28;20184;-88
2022/03/09 09:40:40;;;;;;;4.27;3.67;;;16.80;43.50;15.30;97129.00;;;;5093643;28;20217;-88
2022/03/09 09:43:10;;;;;;;3.93;3.50;;;17.00;42.50;15.50;97129.00;;;;5090920;28;20183;-87
2022/03/09 09:45:38;;;;;;;4.63;3.77;;;17.30;41.90;15.60;97135.00;;;;5093270;28;20208;-88
2022/03/09 09:48:07;;;;;;;4.87;3.53;;;17.40;41.60;15.80;97134.00;;;;5093850;28;20195;-87
2022/03/09 09:50:36;;;;;;;3.87;3.20;;;17.50;40.80;16.00;97140.00;;;;5094557;28;20722;-88
2022/03/09 09:53:05;;;;;;;3.80;3.50;;;17.50;40.60;16.20;97136.00;;;;5094151;28;20214;-87
2022/03/09 09:55:32;;;;;;;4.83;3.50;;;17.60;39.70;16.30;97137.00;;;;5090818;28;20277;-87
2022/03/09 09:58:00;;;;;;;4.10;3.70;;;17.50;39.30;16.30;97130.00;;;;5089692;28;20807;-88
2022/03/09 10:00:28;;;;;;;3.60;3.30;;;17.40;38.60;16.40;97132.00;;;;5090759;28;20229;-87
2022/03/09 10:02:55;;;;;;;4.87;3.90;;;17.20;38.90;16.40;97135.00;;;;5091765;28;20194;-87
2022/03/09 10:05:22;;;;;;;4.17;3.77;;;17.10;38.20;16.30;97135.00;;;;5091199;28;20221;-86
2022/03/09 10:08:14;;;;;;;6.30;4.00;;;16.90;38.60;16.20;97131.00;;;;5087694;28;20724;-88
2022/03/09 10:10:45;;;;;;;4.43;3.60;;;16.80;37.60;16.20;97137.00;;;;5082088;28;20214;-87
2022/03/09 10:13:15;;;;;;;4.83;4.10;;;16.70;38.80;16.10;97131.00;;;;5091327;28;20191;-87
2022/03/09 10:15:43;;;;;;;4.27;3.60;;;16.50;39.00;16.20;97134.00;;;;5094833;28;20302;-86
2022/03/09 10:18:16;;;;;;;6.13;3.53;;;16.60;39.30;16.20;97134.00;;;;5105424;28;20290;-87
2022/03/09 10:20:46;;;;;;;3.63;3.30;;;16.70;40.00;16.20;97133.00;;;;5090536;28;20262;-87
2022/03/09 10:23:15;;;;;;;3.67;3.20;;;16.90;39.00;16.30;97134.00;;;;5094573;28;20286;-88
2022/03/09 10:25:43;;;;;;;4.30;3.27;;;17.10;39.20;16.40;97139.00;;;;5094260;28;20306;-87
2022/03/09 10:28:12;;;;;;;4.57;3.53;;;17.30;38.80;16.40;97139.00;;;;5094582;28;20683;-87
2022/03/09 10:30:42;;;;;;;3.50;3.17;;;17.50;38.60;16.50;97139.00;;;;5094029;28;20645;-87
2022/03/09 10:33:11;;;;;;;4.83;3.47;;;18.00;38.00;16.60;97139.00;;;;5094029;28;20195;-87
2022/03/09 10:35:48;;;;;;;4.90;2.97;;;17.90;37.70;16.70;97141.00;;;;5093300;28;20216;-87
2022/03/09 10:38:29;;;;;;;3.87;3.50;;;18.00;37.60;16.90;97142.00;;;;5093697;28;20223;-87
2022/03/09 10:41:00;;;;;;;3.87;3.40;;;18.20;36.40;16.90;97144.00;;;;5091754;28;20318;-86
2022/03/09 10:43:31;;;;;;;3.37;3.07;;;18.40;37.30;17.00;97137.00;;;;5093140;28;20229;-87
2022/03/09 10:46:08;;;;;;;4.67;3.13;;;18.50;37.20;17.10;97142.00;;;;5090293;28;20246;-87
2022/03/09 10:48:55;;;;;;;3.60;3.30;;;18.70;36.30;17.20;97136.00;;;;5094160;28;20195;-87
2022/03/09 10:51:32;;;;;;;3.50;3.20;;;18.70;36.20;17.30;97134.00;;;;5085075;28;20313;-87
2022/03/09 10:54:04;;;;;;;4.10;3.60;;;18.80;36.00;17.30;97134.00;;;;5074950;28;20533;-87
2022/03/09 10:56:32;;;;;;;3.90;3.60;;;18.90;34.70;17.30;97126.00;;;;5112267;22;20230;-87
2022/03/09 10:59:14;;;;;;;6.27;3.83;;;18.80;34.10;17.30;97122.00;;;;5095440;28;20187;-88
2022/03/09 11:01:44;;;;;;;4.00;3.60;;;18.60;33.80;17.20;97120.00;;;;5093277;28;20526;-90
2022/03/09 11:04:15;;;;;;;4.33;3.57;;;18.40;34.00;17.10;97125.00;;;;5093809;28;20270;-89
2022/03/09 11:06:46;;;;;;;4.30;3.07;;;18.20;33.70;17.10;97115.00;;;;5091014;28;20223;-90
2022/03/09 11:09:17;;;;;;;4.17;3.87;;;17.90;33.70;17.00;97109.00;;;;5077052;28;20204;-89
2022/03/09 11:11:48;;;;;;;3.10;2.90;;;17.70;33.80;16.90;97117.00;;;;5087107;28;20179;-90